Time;durP1;ratioP1;P1;durP2;ratioP2;P2;SDS_P1;SDS_P2;PMS_P1;PMS_P2;Temp;Humidity;BMP_temperature;BMP_pressure;BME280_temperature;BME280_humidity;BME280_pressure;Samples;Min_cycle;Max_cycle;Signal;HPM_P1;HPM_P2
2023/08/27 00:00:15;;;;;;;1.20;0.97;;;;;;;23.25;100.00;95206.50;5071537;28;20525;-57
2023/08/27 00:02:44;;;;;;;8.63;0.97;;;;;;;23.17;100.00;95204.75;5071678;28;20495;-57
2023/08/27 00:05:13;;;;;;;2.17;1.00;;;;;;;23.21;100.00;95197.50;5071354;28;20556;-56
2023/08/27 00:07:41;;;;;;;2.97;1.37;;;;;;;23.31;100.00;95196.94;5071619;28;20450;-57
2023/08/27 00:10:10;;;;;;;1.63;1.23;;;;;;;23.19;100.00;95188.97;5071207;28;20472;-57
2023/08/27 00:12:40;;;;;;;0.70;0.60;;;;;;;23.18;100.00;95198.19;5070002;28;20957;-57
2023/08/27 00:15:09;;;;;;;0.97;0.97;;;;;;;22.96;100.00;95164.50;5070834;28;20499;-57
2023/08/27 00:17:37;;;;;;;0.77;0.63;;;;;;;23.17;100.00;95196.63;5070922;28;20445;-57
2023/08/27 00:20:09;;;;;;;0.80;0.50;;;;;;;22.93;100.00;95159.00;5071150;28;20876;-57
2023/08/27 00:22:38;;;;;;;0.60;0.60;;;;;;;23.03;100.00;95185.47;5070823;28;20480;-57
2023/08/27 00:25:08;;;;;;;0.63;0.53;;;;;;;23.13;100.00;95196.56;5071624;28;20504;-57
2023/08/27 00:27:36;;;;;;;0.80;0.80;;;;;;;22.86;100.00;95193.97;5071045;28;20438;-57
2023/08/27 00:30:07;;;;;;;0.50;0.40;;;;;;;23.10;100.00;95189.13;5071453;28;20433;-57
2023/08/27 00:32:35;;;;;;;0.50;0.30;;;;;;;22.52;100.00;95117.84;5046481;28;20485;-57
2023/08/27 00:35:04;;;;;;;1.40;1.00;;;;;;;23.01;100.00;95193.16;5069556;28;20452;-57
2023/08/27 00:37:33;;;;;;;0.80;0.57;;;;;;;23.29;100.00;95196.53;5070872;28;20445;-57
2023/08/27 00:40:01;;;;;;;1.20;1.10;;;;;;;23.32;100.00;95198.53;5073689;28;20502;-57
2023/08/27 00:42:29;;;;;;;1.03;0.93;;;;;;;23.19;100.00;95192.44;5074798;28;21026;-57
2023/08/27 00:44:57;;;;;;;0.93;0.80;;;;;;;23.24;100.00;95197.59;5074773;28;20429;-57
2023/08/27 00:47:27;;;;;;;0.80;0.73;;;;;;;22.90;100.00;95109.13;5075238;28;20445;-57
2023/08/27 00:49:56;;;;;;;0.90;0.90;;;;;;;23.49;100.00;95192.75;5073808;28;20887;-57
2023/08/27 00:52:24;;;;;;;1.03;0.93;;;;;;;23.43;100.00;95199.56;5074867;28;20643;-57
2023/08/27 00:54:55;;;;;;;0.97;0.97;;;;;;;23.51;100.00;95189.69;5074887;28;20502;-57
2023/08/27 00:57:23;;;;;;;0.60;0.50;;;;;;;23.46;100.00;95193.44;5074534;28;20610;-57
2023/08/27 00:59:52;;;;;;;1.00;0.90;;;;;;;23.50;100.00;95191.63;5074059;28;20441;-58
2023/08/27 01:02:21;;;;;;;13.47;2.00;;;;;;;23.33;100.00;95187.34;5074599;28;20479;-57
2023/08/27 01:04:51;;;;;;;0.60;0.60;;;;;;;23.21;100.00;95187.47;5074571;28;21079;-57
2023/08/27 01:07:27;;;;;;;1.10;1.00;;;;;;;22.65;100.00;95124.75;5075046;28;20438;-57
2023/08/27 01:10:04;;;;;;;0.97;0.87;;;;;;;23.14;100.00;95175.72;5074900;28;20444;-57
2023/08/27 01:12:39;;;;;;;0.60;0.60;;;;;;;23.32;100.00;95180.38;5074620;28;20437;-57
2023/08/27 01:15:08;;;;;;;1.03;1.03;;;;;;;23.12;100.00;95130.06;5074853;28;20449;-58
2023/08/27 01:17:37;;;;;;;1.30;1.20;;;;;;;23.63;100.00;95173.34;5074218;28;20965;-57
2023/08/27 01:20:09;;;;;;;0.90;0.90;;;;;;;23.75;100.00;95176.69;5074396;28;20473;-57
2023/08/27 01:22:39;;;;;;;1.57;1.47;;;;;;;23.78;100.00;95170.53;5074140;28;20478;-57
2023/08/27 01:25:09;;;;;;;0.90;0.90;;;;;;;23.76;100.00;95177.44;5074348;28;20442;-57
2023/08/27 01:27:44;;;;;;;0.80;0.70;;;;;;;23.55;100.00;95166.22;5073791;28;20594;-58
2023/08/27 01:30:19;;;;;;;1.17;0.63;;;;;;;23.31;100.00;95176.09;5074519;28;20773;-57
2023/08/27 01:32:56;;;;;;;2.40;0.90;;;;;;;23.12;100.00;95173.34;5074198;28;20523;-57
2023/08/27 01:35:26;;;;;;;0.57;0.53;;;;;;;23.10;100.00;95170.22;5073868;28;20925;-57
2023/08/27 01:37:56;;;;;;;0.80;0.57;;;;;;;23.05;100.00;95172.38;5073693;28;20458;-57
2023/08/27 01:40:26;;;;;;;0.70;0.50;;;;;;;22.98;100.00;95172.22;5073043;28;20973;-58
2023/08/27 01:42:54;;;;;;;1.40;1.30;;;;;;;22.71;100.00;95174.72;5073932;28;20469;-57
2023/08/27 01:45:23;;;;;;;1.20;1.10;;;;;;;22.77;100.00;95174.44;5073686;28;20805;-57
2023/08/27 01:47:51;;;;;;;0.80;0.80;;;;;;;22.80;100.00;95177.22;5073988;28;20495;-57
2023/08/27 01:50:20;;;;;;;0.70;0.70;;;;;;;22.82;100.00;95179.59;5073054;28;20433;-57
2023/08/27 01:52:48;;;;;;;0.80;0.60;;;;;;;22.90;100.00;95170.50;5073972;28;20538;-57
2023/08/27 01:55:18;;;;;;;0.90;0.90;;;;;;;22.94;100.00;95168.69;5074095;28;20438;-57
2023/08/27 01:57:47;;;;;;;0.80;0.80;;;;;;;22.87;100.00;95165.81;5073768;28;20441;-57
2023/08/27 02:00:16;;;;;;;0.67;0.60;;;;;;;22.87;100.00;95165.81;5073735;28;20441;-57
2023/08/27 02:02:46;;;;;;;1.87;0.73;;;;;;;22.88;100.00;95143.03;5073959;28;20504;-57
2023/08/27 02:05:14;;;;;;;0.97;0.87;;;;;;;23.08;100.00;95171.69;5073581;28;20491;-57
2023/08/27 02:07:42;;;;;;;0.93;0.93;;;;;;;22.91;100.00;95167.47;5073123;28;20441;-57
2023/08/27 02:10:11;;;;;;;0.83;0.83;;;;;;;22.72;100.00;95162.75;5073495;28;20441;-57
2023/08/27 02:12:41;;;;;;;0.80;0.57;;;;;;;22.88;100.00;95164.66;5072937;28;20438;-57
2023/08/27 02:15:10;;;;;;;0.50;0.50;;;;;;;23.01;100.00;95166.13;5073215;28;20449;-57
2023/08/27 02:17:38;;;;;;;1.37;1.33;;;;;;;22.84;100.00;95167.31;5073733;28;20437;-57
2023/08/27 02:20:09;;;;;;;0.70;0.53;;;;;;;22.53;100.00;95168.06;5073666;28;20448;-57
2023/08/27 02:22:38;;;;;;;0.73;0.73;;;;;;;22.69;100.00;95158.03;5073020;28;20569;-57
2023/08/27 02:25:07;;;;;;;1.13;1.13;;;;;;;22.39;100.00;95166.91;5073253;28;20528;-57
2023/08/27 02:27:36;;;;;;;2.27;2.17;;;;;;;22.28;100.00;95158.53;5073237;28;20976;-57
2023/08/27 02:30:07;;;;;;;1.37;1.13;;;;;;;22.57;100.00;95158.09;5072965;28;20433;-57
2023/08/27 02:32:35;;;;;;;0.70;0.70;;;;;;;22.25;100.00;95069.34;5073288;28;20465;-58
2023/08/27 02:35:04;;;;;;;0.60;0.60;;;;;;;22.69;100.00;95152.63;5072758;28;20449;-56
2023/08/27 02:37:32;;;;;;;2.10;0.70;;;;;;;22.77;100.00;95156.28;5072533;28;20438;-57
2023/08/27 02:40:01;;;;;;;2.40;1.07;;;;;;;22.82;100.00;95158.72;5073028;28;20433;-57
2023/08/27 02:42:29;;;;;;;0.57;0.43;;;;;;;22.82;100.00;95163.38;5073058;28;20522;-57
2023/08/27 02:44:57;;;;;;;5.87;1.20;;;;;;;22.47;100.00;95133.53;5071208;28;20449;-57
2023/08/27 02:47:27;;;;;;;1.20;0.60;;;;;;;22.86;100.00;95159.63;5072798;28;20432;-57
2023/08/27 02:49:55;;;;;;;1.00;1.00;;;;;;;22.94;100.00;95136.25;5071820;28;20473;-57
2023/08/27 02:52:24;;;;;;;1.43;0.70;;;;;;;23.06;100.00;95155.84;5072693;28;20855;-57
2023/08/27 02:54:52;;;;;;;1.53;1.43;;;;;;;23.39;100.00;95150.03;5072760;28;20441;-57
2023/08/27 02:57:21;;;;;;;1.17;0.43;;;;;;;23.29;100.00;95147.84;5072348;28;20806;-57
2023/08/27 02:59:49;;;;;;;0.97;0.87;;;;;;;23.43;100.00;95142.00;5072471;28;20864;-57
2023/08/27 03:02:18;;;;;;;1.13;0.83;;;;;;;23.53;100.00;95147.59;5072069;28;20480;-57
2023/08/27 03:04:48;;;;;;;1.60;1.50;;;;;;;23.38;100.00;95157.34;5072506;28;20463;-57
2023/08/27 03:07:16;;;;;;;1.77;1.67;;;;;;;22.69;100.00;95101.31;5072478;28;20437;-57
2023/08/27 03:09:44;;;;;;;1.27;1.17;;;;;;;22.98;100.00;95156.03;5071916;28;20437;-57
2023/08/27 03:12:13;;;;;;;1.10;0.87;;;;;;;22.89;100.00;95136.50;5072417;28;20450;-57
2023/08/27 03:14:41;;;;;;;1.23;0.60;;;;;;;22.67;100.00;95152.22;5072329;28;20445;-57
2023/08/27 03:17:09;;;;;;;1.43;1.33;;;;;;;22.04;100.00;95170.25;5071497;28;20452;-57
2023/08/27 03:19:38;;;;;;;0.70;0.60;;;;;;;22.28;100.00;95161.25;5072091;28;20464;-57
2023/08/27 03:22:07;;;;;;;0.70;0.70;;;;;;;22.55;100.00;95165.78;5071557;28;20437;-57
2023/08/27 03:24:36;;;;;;;1.30;1.20;;;;;;;22.29;100.00;95165.50;5071462;28;20444;-57
2023/08/27 03:27:04;;;;;;;0.97;0.50;;;;;;;22.44;100.00;95126.91;5071652;28;20498;-57
2023/08/27 03:29:33;;;;;;;0.60;0.60;;;;;;;22.90;100.00;95167.78;5072104;28;20507;-57
2023/08/27 03:32:01;;;;;;;1.50;1.40;;;;;;;22.71;100.00;95125.28;5071967;28;20461;-55
2023/08/27 03:34:30;;;;;;;1.20;1.10;;;;;;;23.10;100.00;95172.13;5071977;28;20441;-56
2023/08/27 03:36:58;;;;;;;2.17;1.00;;;;;;;22.77;100.00;95162.50;5071855;28;20486;-56
2023/08/27 03:39:28;;;;;;;2.30;1.20;;;;;;;22.91;100.00;95172.88;5072073;28;20445;-56
2023/08/27 03:41:56;;;;;;;0.80;0.70;;;;;;;22.99;100.00;95168.41;5071812;28;20555;-57
2023/08/27 03:44:25;;;;;;;2.53;0.60;;;;;;;22.91;100.00;95158.56;5071281;28;20515;-56
2023/08/27 03:46:53;;;;;;;1.10;0.80;;;;;;;22.77;100.00;95154.38;5072000;28;20437;-57
2023/08/27 03:49:22;;;;;;;0.50;0.40;;;;;;;22.83;100.00;95146.00;5071468;28;20526;-56
2023/08/27 03:51:50;;;;;;;1.30;1.20;;;;;;;22.50;100.00;95159.84;5071085;28;20499;-56
2023/08/27 03:54:19;;;;;;;1.80;1.70;;;;;;;22.71;100.00;95155.00;5071049;28;20437;-56
2023/08/27 03:56:48;;;;;;;0.93;0.93;;;;;;;22.77;100.00;95161.69;5070442;28;20442;-56
2023/08/27 03:59:17;;;;;;;1.13;1.03;;;;;;;22.45;100.00;95166.31;5071517;28;20437;-56
2023/08/27 04:01:45;;;;;;;1.37;0.90;;;;;;;22.47;100.00;95137.03;5071733;28;20517;-56
2023/08/27 04:04:14;;;;;;;2.23;1.30;;;;;;;22.96;100.00;95152.88;5071321;28;20562;-56
2023/08/27 04:06:42;;;;;;;1.20;1.10;;;;;;;23.11;100.00;95176.41;5071887;28;20478;-56
2023/08/27 04:09:10;;;;;;;1.67;0.70;;;;;;;22.98;100.00;95169.53;5071755;28;20788;-56
2023/08/27 04:11:38;;;;;;;2.77;1.97;;;;;;;23.14;100.00;95164.91;5070889;28;20938;-56
2023/08/27 04:14:08;;;;;;;0.80;0.60;;;;;;;23.18;100.00;95163.03;5070471;28;20543;-56
2023/08/27 04:16:37;;;;;;;1.20;1.13;;;;;;;23.38;100.00;95169.31;5071264;28;20429;-56
2023/08/27 04:19:05;;;;;;;1.23;1.13;;;;;;;23.29;100.00;95172.19;5070362;28;20469;-57
2023/08/27 04:21:33;;;;;;;0.80;0.70;;;;;;;23.02;100.00;95108.25;5071211;28;20441;-55
2023/08/27 04:24:02;;;;;;;1.90;1.80;;;;;;;23.50;100.00;95161.88;5071616;28;20533;-56
2023/08/27 04:26:30;;;;;;;0.63;0.57;;;;;;;23.58;100.00;95165.50;5071498;28;20499;-55
2023/08/27 04:28:58;;;;;;;0.97;0.90;;;;;;;23.54;100.00;95157.31;5071078;28;20437;-56
2023/08/27 04:31:28;;;;;;;0.97;0.97;;;;;;;23.32;100.00;95129.00;5070992;28;20441;-56
2023/08/27 04:33:57;;;;;;;2.53;0.97;;;;;;;23.58;100.00;95157.38;5071141;28;20910;-56
2023/08/27 04:36:25;;;;;;;1.40;1.30;;;;;;;23.08;100.00;95104.09;5071160;28;20432;-56
2023/08/27 04:38:54;;;;;;;1.40;1.40;;;;;;;23.20;100.00;95166.16;5070759;28;20457;-55
2023/08/27 04:41:22;;;;;;;1.60;0.87;;;;;;;23.34;100.00;95169.22;5071140;28;20483;-55
2023/08/27 04:43:50;;;;;;;1.70;1.40;;;;;;;22.64;100.00;95106.97;5044832;28;20477;-56
2023/08/27 04:46:18;;;;;;;1.03;0.93;;;;;;;23.16;100.00;95173.44;5070879;28;20926;-56
2023/08/27 04:48:48;;;;;;;1.40;1.30;;;;;;;22.97;100.00;95163.34;5071047;28;20597;-55
2023/08/27 04:51:17;;;;;;;1.43;1.33;;;;;;;23.18;100.00;95163.03;5070738;28;20462;-56
2023/08/27 04:53:45;;;;;;;2.40;0.80;;;;;;;23.01;100.00;95164.22;5070870;28;20448;-56
2023/08/27 04:56:15;;;;;;;1.07;0.90;;;;;;;22.99;100.00;95157.59;5070256;28;20438;-56
2023/08/27 04:58:44;;;;;;;1.40;1.13;;;;;;;22.49;100.00;95137.44;5070247;28;20499;-56
2023/08/27 05:01:12;;;;;;;0.97;0.73;;;;;;;23.12;100.00;95159.81;5070683;28;20441;-56
2023/08/27 05:03:41;;;;;;;1.10;1.00;;;;;;;22.94;100.00;95155.16;5070487;28;20473;-55
2023/08/27 05:06:10;;;;;;;0.83;0.80;;;;;;;23.06;100.00;95130.72;5070478;28;20433;-55
2023/08/27 05:08:42;;;;;;;0.93;0.80;;;;;;;23.28;100.00;95148.97;5070461;28;20448;-55
2023/08/27 05:11:10;;;;;;;1.43;1.33;;;;;;;23.11;100.00;95143.97;5070150;28;20442;-56
2023/08/27 05:13:38;;;;;;;0.80;0.80;;;;;;;23.10;100.00;95145.88;5069769;28;20429;-56
2023/08/27 05:16:06;;;;;;;3.17;0.90;;;;;;;23.30;100.00;95154.84;5056363;28;21049;-57
2023/08/27 05:18:35;;;;;;;2.37;0.93;;;;;;;23.14;100.00;95145.97;5070149;28;20461;-56
2023/08/27 05:21:03;;;;;;;3.63;1.10;;;;;;;23.04;100.00;95143.81;5070512;28;20449;-57
2023/08/27 05:23:33;;;;;;;1.17;0.80;;;;;;;22.94;100.00;95145.13;5070392;28;20543;-56
2023/08/27 05:26:02;;;;;;;0.80;0.73;;;;;;;23.27;100.00;95142.00;5045561;28;20453;-56
2023/08/27 05:28:30;;;;;;;6.50;2.47;;;;;;;23.03;100.00;95145.72;5073286;28;20445;-56
2023/08/27 05:30:58;;;;;;;5.23;1.50;;;;;;;22.59;100.00;95142.34;5073752;28;20475;-56
2023/08/27 05:33:27;;;;;;;6.03;1.40;;;;;;;22.11;100.00;95151.53;5073888;28;20473;-55
2023/08/27 05:35:55;;;;;;;1.40;1.30;;;;;;;22.28;100.00;95147.75;5073540;28;20441;-56
2023/08/27 05:38:23;;;;;;;6.17;2.13;;;;;;;22.31;100.00;95130.84;5073044;28;20437;-55
2023/08/27 05:40:53;;;;;;;2.03;1.83;;;;;;;22.56;100.00;95139.56;5064918;28;20434;-56
2023/08/27 05:43:23;;;;;;;0.80;0.80;;;;;;;22.98;100.00;95142.50;5070149;28;20502;-56
2023/08/27 05:45:52;;;;;;;1.17;0.60;;;;;;;23.21;100.00;95130.69;5073670;28;20454;-56
2023/08/27 05:48:21;;;;;;;1.10;1.00;;;;;;;23.70;100.00;95138.31;5073291;28;20482;-56
2023/08/27 05:50:49;;;;;;;0.77;0.77;;;;;;;23.78;100.00;95145.44;5073608;28;20452;-54
2023/08/27 05:53:17;;;;;;;0.90;0.90;;;;;;;23.85;100.00;95132.03;5073250;28;20437;-54
2023/08/27 05:55:47;;;;;;;0.90;0.60;;;;;;;23.91;100.00;95128.66;5073418;28;20442;-55
2023/08/27 05:58:17;;;;;;;0.60;0.60;;;;;;;24.06;100.00;95123.53;5073155;28;20433;-55
2023/08/27 06:00:45;;;;;;;0.70;0.67;;;;;;;24.15;100.00;95140.34;5072377;28;20986;-53
2023/08/27 06:03:14;;;;;;;1.87;1.70;;;;;;;23.59;100.00;95083.97;5071910;28;20434;-54
2023/08/27 06:05:42;;;;;;;1.00;1.00;;;;;;;23.86;100.00;95141.69;5073381;28;20483;-54
2023/08/27 06:08:10;;;;;;;3.40;1.47;;;;;;;24.11;100.00;95115.91;5044937;28;20449;-54
2023/08/27 06:10:39;;;;;;;1.63;1.13;;;;;;;24.59;100.00;95138.81;5070883;28;21167;-53
2023/08/27 06:13:07;;;;;;;2.83;1.37;;;;;;;24.00;100.00;95049.94;5071177;28;20441;-54
2023/08/27 06:15:37;;;;;;;5.80;1.10;;;;;;;25.23;100.00;95133.22;5071245;28;20971;-54
2023/08/27 06:18:07;;;;;;;1.03;0.93;;;;;;;25.77;97.92;95130.09;5070472;28;20564;-54
2023/08/27 06:20:35;;;;;;;1.17;0.87;;;;;;;25.79;96.62;95110.72;5071177;28;20448;-54
2023/08/27 06:23:05;;;;;;;1.13;1.03;;;;;;;26.04;91.74;95122.63;5072933;28;20480;-54
2023/08/27 06:25:34;;;;;;;0.60;0.60;;;;;;;26.06;92.97;95125.75;5072864;28;20565;-54
2023/08/27 06:28:04;;;;;;;2.10;1.30;;;;;;;26.14;93.32;95130.13;5073005;28;20477;-54
2023/08/27 06:30:33;;;;;;;1.93;1.07;;;;;;;26.42;88.07;95127.69;5072791;28;20781;-54
2023/08/27 06:33:03;;;;;;;2.30;2.20;;;;;;;26.12;84.71;95121.59;5072603;28;20437;-54
2023/08/27 06:35:32;;;;;;;4.13;1.27;;;;;;;26.34;86.29;95098.09;5072304;28;20807;-53
2023/08/27 06:38:00;;;;;;;2.03;1.30;;;;;;;26.90;86.55;95130.44;5072116;28;20452;-53
2023/08/27 06:40:29;;;;;;;2.03;1.13;;;;;;;27.27;81.50;95098.47;5072396;28;20441;-53
2023/08/27 06:42:58;;;;;;;1.53;1.43;;;;;;;28.02;79.12;95113.22;5072414;28;20445;-53
2023/08/27 06:45:27;;;;;;;0.90;0.90;;;;;;;28.03;76.67;95112.81;5071178;28;20510;-53
2023/08/27 06:47:56;;;;;;;1.00;0.60;;;;;;;28.16;75.57;95107.78;5072664;28;20440;-53
2023/08/27 06:50:26;;;;;;;0.90;0.90;;;;;;;28.49;75.78;95109.41;5046657;28;20481;-54
2023/08/27 06:52:55;;;;;;;1.23;1.13;;;;;;;28.75;71.97;95107.09;5072549;28;20452;-54
2023/08/27 06:55:24;;;;;;;1.90;1.07;;;;;;;28.88;71.25;95108.28;5072141;28;20465;-54
2023/08/27 06:57:52;;;;;;;1.27;0.77;;;;;;;28.98;73.02;95103.19;5072299;28;20440;-54
2023/08/27 07:00:21;;;;;;;1.00;1.00;;;;;;;28.46;71.37;95088.38;5072510;28;20441;-54
2023/08/27 07:02:49;;;;;;;2.20;1.60;;;;;;;28.75;72.30;95088.00;5071746;28;20436;-54
2023/08/27 07:05:18;;;;;;;1.50;1.40;;;;;;;29.01;69.96;95072.38;5072008;28;20556;-54
2023/08/27 07:07:48;;;;;;;1.83;1.73;;;;;;;28.83;70.54;95080.59;5072197;28;20978;-54
2023/08/27 07:10:18;;;;;;;0.70;0.70;;;;;;;29.20;68.63;95088.34;5072099;28;20437;-54
2023/08/27 07:12:46;;;;;;;1.23;0.80;;;;;;;29.92;66.89;95069.41;5072116;28;20506;-54
2023/08/27 07:15:15;;;;;;;6.03;0.90;;;;;;;30.01;65.46;95077.94;5072412;28;20438;-53
2023/08/27 07:17:43;;;;;;;1.90;1.17;;;;;;;30.24;64.67;95052.00;5072264;28;20452;-53
2023/08/27 07:20:13;;;;;;;2.30;1.00;;;;;;;30.67;66.93;95077.91;5071685;28;20988;-53
2023/08/27 07:22:42;;;;;;;1.73;1.63;;;;;;;30.44;64.44;95072.22;5071685;28;21089;-53
2023/08/27 07:25:11;;;;;;;1.30;1.23;;;;;;;30.89;63.63;95064.81;5071857;28;20464;-52
2023/08/27 07:27:39;;;;;;;1.63;1.53;;;;;;;31.31;62.56;95058.94;5071960;28;20441;-53
2023/08/27 07:30:08;;;;;;;4.10;1.20;;;;;;;30.92;61.45;95064.00;5071451;28;20433;-53
2023/08/27 07:32:37;;;;;;;5.20;1.37;;;;;;;31.19;61.84;95059.47;5071822;28;20901;-53
2023/08/27 07:35:06;;;;;;;8.73;1.20;;;;;;;31.08;61.65;95056.06;5071457;28;20473;-52
2023/08/27 07:37:34;;;;;;;4.63;1.57;;;;;;;31.43;61.88;95053.72;5071802;28;20441;-52
2023/08/27 07:40:03;;;;;;;0.97;0.97;;;;;;;31.36;58.71;95053.00;5071512;28;20437;-52
2023/08/27 07:42:33;;;;;;;4.73;1.73;;;;;;;31.13;58.19;95050.13;5071491;28;20494;-52
2023/08/27 07:45:02;;;;;;;1.43;1.13;;;;;;;31.98;58.86;95038.94;5071142;28;20517;-53
2023/08/27 07:47:30;;;;;;;1.53;0.60;;;;;;;32.75;56.88;95028.78;5071650;28;20464;-52
2023/08/27 07:49:59;;;;;;;0.53;0.40;;;;;;;33.16;53.99;95037.50;5070306;28;20522;-53
2023/08/27 07:52:27;;;;;;;1.60;1.50;;;;;;;32.85;53.36;95038.03;5071357;28;20506;-53
2023/08/27 07:54:55;;;;;;;1.77;1.67;;;;;;;32.22;54.38;95039.81;5070774;28;20432;-53
2023/08/27 07:57:24;;;;;;;0.80;0.77;;;;;;;32.23;53.66;95042.13;5071103;28;20468;-52
2023/08/27 07:59:54;;;;;;;2.20;0.97;;;;;;;33.12;52.01;95038.72;5070817;28;20444;-52
2023/08/27 08:02:22;;;;;;;1.67;0.60;;;;;;;33.62;52.52;95036.63;5071606;28;20440;-52
2023/08/27 08:04:51;;;;;;;0.90;0.90;;;;;;;34.08;52.97;95026.63;5071224;28;20472;-53
2023/08/27 08:07:19;;;;;;;0.57;0.50;;;;;;;34.17;48.85;95016.59;5071263;28;20433;-53
2023/08/27 08:09:48;;;;;;;0.60;0.60;;;;;;;34.00;48.91;95011.47;5071487;28;20874;-53
2023/08/27 08:12:16;;;;;;;1.00;0.90;;;;;;;34.20;50.56;95003.94;5057890;28;20433;-52
2023/08/27 08:14:44;;;;;;;0.73;0.60;;;;;;;34.76;49.87;95024.59;5071563;28;20996;-52
2023/08/27 08:17:14;;;;;;;0.90;0.80;;;;;;;34.58;48.62;95002.28;5070414;28;20444;-52
2023/08/27 08:19:43;;;;;;;0.80;0.80;;;;;;;35.33;48.24;95010.13;5071007;28;20433;-52
2023/08/27 08:22:11;;;;;;;0.83;0.83;;;;;;;35.11;50.67;94989.91;5070947;28;20494;-52
2023/08/27 08:24:39;;;;;;;1.63;1.53;;;;;;;34.92;49.23;94999.03;5070582;28;20494;-52
2023/08/27 08:27:08;;;;;;;1.17;1.07;;;;;;;35.56;47.42;94995.34;5070778;28;20486;-52
2023/08/27 08:29:36;;;;;;;0.77;0.77;;;;;;;35.38;43.73;94992.28;5071095;28;20445;-52
2023/08/27 08:32:05;;;;;;;1.23;0.60;;;;;;;35.78;41.97;94985.22;5070066;28;20252;-52
2023/08/27 08:34:35;;;;;;;0.60;0.60;;;;;;;35.84;41.46;94958.66;5070348;28;20226;-52
2023/08/27 08:37:04;;;;;;;1.17;1.07;;;;;;;36.31;40.23;94980.84;5070560;28;20610;-52
2023/08/27 08:39:32;;;;;;;0.60;0.60;;;;;;;36.28;40.50;94946.63;5070772;28;20278;-53
2023/08/27 08:42:07;;;;;;;0.60;0.57;;;;;;;36.89;40.82;94965.50;5070980;28;20198;-53
2023/08/27 08:44:49;;;;;;;0.60;0.50;;;;;;;37.05;41.17;94967.38;5070576;28;20194;-52
2023/08/27 08:47:20;;;;;;;1.13;0.67;;;;;;;36.39;42.19;94967.59;5070763;28;20198;-53
2023/08/27 08:49:55;;;;;;;0.50;0.50;;;;;;;35.90;42.60;94945.09;5069850;28;20284;-53
2023/08/27 08:52:27;;;;;;;0.50;0.50;;;;;;;36.64;42.22;94960.06;5070495;28;20194;-53
2023/08/27 08:54:56;;;;;;;0.87;0.87;;;;;;;36.07;41.05;94955.59;5070130;28;20218;-53
2023/08/27 08:57:28;;;;;;;0.80;0.80;;;;;;;35.53;42.25;94952.09;5069989;28;20701;-53
2023/08/27 08:59:57;;;;;;;0.80;0.80;;;;;;;36.21;43.98;94957.13;5070847;28;20198;-53
2023/08/27 09:02:25;;;;;;;2.07;1.10;;;;;;;35.77;42.03;94916.75;5074225;28;20198;-53
2023/08/27 09:04:57;;;;;;;0.70;0.70;;;;;;;35.98;43.38;94946.41;5074102;28;20205;-53
2023/08/27 09:07:26;;;;;;;1.10;0.60;;;;;;;36.16;42.17;94941.91;5073977;28;20248;-53
2023/08/27 09:09:57;;;;;;;1.00;0.77;;;;;;;35.63;42.87;94898.63;5074598;28;20248;-53
2023/08/27 09:12:27;;;;;;;0.70;0.70;;;;;;;36.24;45.73;94890.78;5074270;28;20247;-52
2023/08/27 09:14:55;;;;;;;1.13;1.03;;;;;;;35.82;43.49;94919.72;5074436;28;20202;-52
2023/08/27 09:17:24;;;;;;;2.50;1.17;;;;;;;35.11;43.71;94920.25;5074052;28;20198;-53
2023/08/27 09:19:53;;;;;;;0.70;0.60;;;;;;;34.93;45.70;94924.25;5074477;28;20205;-53
2023/08/27 09:22:23;;;;;;;0.70;0.70;;;;;;;34.36;45.19;94910.38;5074457;28;20264;-53
2023/08/27 09:24:51;;;;;;;0.60;0.50;;;;;;;35.49;44.34;94869.50;5074251;28;20256;-52
2023/08/27 09:27:20;;;;;;;0.43;0.40;;;;;;;36.37;42.02;94843.81;5074056;28;20268;-52
2023/08/27 09:29:52;;;;;;;1.23;1.13;;;;;;;37.71;43.53;94907.28;5074218;28;20252;-52
2023/08/27 09:32:21;;;;;;;0.50;0.50;;;;;;;38.12;38.79;94854.25;5073409;28;20187;-52
2023/08/27 09:34:57;;;;;;;0.60;0.60;;;;;;;39.11;38.77;94889.59;5074295;28;20739;-52
2023/08/27 09:37:29;;;;;;;0.50;0.43;;;;;;;39.55;35.94;94884.41;5073589;28;20268;-53
2023/08/27 09:39:57;;;;;;;0.50;0.43;;;;;;;39.24;36.11;94881.13;5073451;28;20194;-53
2023/08/27 09:42:26;;;;;;;0.80;0.80;;;;;;;39.13;36.04;94875.25;5073799;28;20190;-53
2023/08/27 09:44:54;;;;;;;0.43;0.40;;;;;;;39.33;37.83;94875.56;5074029;28;20229;-53
2023/08/27 09:47:30;;;;;;;0.65;0.65;;;;;;;39.06;36.23;94876.38;5073448;28;20662;-53
2023/08/27 09:49:59;;;;;;;0.40;0.40;;;;;;;39.04;31.37;94858.66;5073328;28;20236;-53
2023/08/27 09:52:29;;;;;;;0.60;0.60;;;;;;;39.93;34.10;94850.53;5073965;28;20198;-52
2023/08/27 09:54:58;;;;;;;0.40;0.40;;;;;;;40.31;32.22;94858.19;5073277;28;20195;-53
2023/08/27 09:57:26;;;;;;;0.40;0.40;;;;;;;40.22;30.55;94847.94;5073841;28;20685;-53
2023/08/27 09:59:54;;;;;;;0.30;0.30;;;;;;;40.54;31.50;94846.34;5073577;28;20236;-52
2023/08/27 10:02:23;;;;;;;1.15;0.50;;;;;;;40.89;32.38;94844.53;5073257;28;20583;-52
2023/08/27 10:04:52;;;;;;;0.82;0.50;;;;;;;39.94;30.39;94843.75;5072731;28;20195;-52
2023/08/27 10:07:21;;;;;;;0.60;0.52;;;;;;;40.73;28.69;94838.63;5072776;28;20264;-52
2023/08/27 10:09:51;;;;;;;0.35;0.35;;;;;;;41.29;27.70;94807.06;5073067;28;20586;-52
2023/08/27 10:12:21;;;;;;;0.50;0.50;;;;;;;41.45;28.79;94829.59;5072567;28;20229;-53
2023/08/27 10:14:49;;;;;;;0.35;0.32;;;;;;;41.35;28.04;94835.75;5073168;28;20190;-55
2023/08/27 10:17:17;;;;;;;0.30;0.30;;;;;;;41.29;27.71;94801.50;5073570;28;20234;-54
2023/08/27 10:19:46;;;;;;;0.30;0.20;;;;;;;40.98;28.08;94822.22;5072958;28;20206;-54
2023/08/27 10:22:17;;;;;;;0.55;0.55;;;;;;;39.38;27.27;94819.47;5072959;28;20285;-54
2023/08/27 10:24:47;;;;;;;0.57;0.57;;;;;;;40.11;27.59;94816.38;5073336;28;20252;-54
2023/08/27 10:27:17;;;;;;;0.63;0.63;;;;;;;39.79;29.33;94821.47;5073451;28;20218;-54
2023/08/27 10:29:47;;;;;;;0.57;0.57;;;;;;;39.83;31.01;94822.06;5073164;28;20194;-54
2023/08/27 10:32:16;;;;;;;3.90;0.43;;;;;;;40.41;30.87;94793.00;5073056;28;20240;-54
2023/08/27 10:34:45;;;;;;;0.40;0.40;;;;;;;41.06;28.42;94800.34;5073036;28;20202;-54
2023/08/27 10:37:15;;;;;;;0.88;0.88;;;;;;;40.14;29.22;94818.22;5072256;28;20209;-54
2023/08/27 10:39:44;;;;;;;0.50;0.50;;;;;;;39.39;28.34;94821.00;5073032;28;20583;-55
2023/08/27 10:42:33;;;;;;;0.30;0.30;;;;;;;40.80;29.47;94814.00;5072692;28;20190;-54
2023/08/27 10:45:12;;;;;;;0.47;0.47;;;;;;;41.07;28.54;94788.75;5072693;28;20754;-54
2023/08/27 10:47:40;;;;;;;0.40;0.30;;;;;;;41.78;26.96;94804.31;5073044;28;20214;-54
2023/08/27 10:50:10;;;;;;;0.50;0.50;;;;;;;41.62;24.77;94811.13;5072072;28;20241;-55
2023/08/27 10:52:51;;;;;;;0.30;0.20;;;;;;;41.92;24.44;94763.78;5072687;28;20194;-55
2023/08/27 10:55:35;;;;;;;0.30;0.30;;;;;;;42.37;23.11;94797.31;5072495;28;20195;-55
2023/08/27 10:58:17;;;;;;;0.38;0.38;;;;;;;42.05;26.30;94800.41;5072556;28;20670;-55
2023/08/27 11:01:02;;;;;;;0.50;0.40;;;;;;;42.17;24.12;94755.53;5072645;28;20206;-55
2023/08/27 11:03:52;;;;;;;0.38;0.25;;;;;;;43.16;25.39;94798.94;5049375;28;20198;-56
2023/08/27 11:06:21;;;;;;;0.30;0.25;;;;;;;42.78;25.01;94784.09;5071728;28;20197;-55
2023/08/27 11:08:53;;;;;;;0.30;0.30;;;;;;;42.61;23.73;94783.16;5072164;28;20670;-56
2023/08/27 11:11:25;;;;;;;0.57;0.57;;;;;;;40.53;24.70;94786.47;5071893;28;20220;-56
2023/08/27 11:14:05;;;;;;;14.02;0.63;;;;;;;38.11;26.09;94791.81;5072227;28;20255;-56
2023/08/27 11:16:49;;;;;;;0.85;0.85;;;;;;;37.88;28.17;94779.34;5072003;28;20712;-55
2023/08/27 11:19:29;;;;;;;0.20;0.20;;;;;;;37.85;27.18;94738.00;5071680;28;20190;-55
2023/08/27 11:22:10;;;;;;;0.22;0.20;;;;;;;38.26;26.55;94726.31;5071946;28;20260;-56
2023/08/27 11:24:43;;;;;;;2.35;0.65;;;;;;;38.65;28.62;94783.56;5049752;28;20190;-55
2023/08/27 11:27:12;;;;;;;1.02;1.02;;;;;;;38.43;27.43;94788.47;5071804;28;20301;-56
2023/08/27 11:29:44;;;;;;;0.40;0.40;;;;;;;38.61;28.27;94774.63;5072171;28;20291;-56
2023/08/27 11:32:13;;;;;;;0.40;0.40;;;;;;;38.09;28.53;94777.69;5071490;28;20198;-56
2023/08/27 11:34:43;;;;;;;2.35;1.13;;;;;;;37.83;29.69;94773.59;5072018;28;20229;-56
2023/08/27 11:37:12;;;;;;;0.30;0.30;;;;;;;37.91;29.71;94764.59;5071404;28;20190;-56
2023/08/27 11:39:44;;;;;;;1.02;1.02;;;;;;;37.80;26.77;94761.47;5071743;28;20716;-56